sensor_id;sensor_type;location;lat;lon;timestamp;temperature;humidity
2855;DHT22;1435;49.472;10.940;2023-02-28T00:01:34;1.20;99.90
2855;DHT22;1435;49.472;10.940;2023-02-28T00:06:37;1.20;99.90
2855;DHT22;1435;49.472;10.940;2023-02-28T00:11:39;1.10;99.90
2855;DHT22;1435;49.472;10.940;2023-02-28T00:16:41;1.10;99.90
2855;DHT22;1435;49.472;10.940;2023-02-28T00:21:44;1.00;99.90
2855;DHT22;1435;49.472;10.940;2023-02-28T00:26:46;0.90;99.90
2855;DHT22;1435;49.472;10.940;2023-02-28T00:31:47;0.80;99.90
2855;DHT22;1435;49.472;10.940;2023-02-28T00:36:50;0.80;99.90
2855;DHT22;1435;49.472;10.940;2023-02-28T00:41:52;0.70;99.90
2855;DHT22;1435;49.472;10.940;2023-02-28T00:46:54;0.70;99.90
2855;DHT22;1435;49.472;10.940;2023-02-28T00:51:58;0.60;99.90
2855;DHT22;1435;49.472;10.940;2023-02-28T00:57:00;0.60;99.90
2855;DHT22;1435;49.472;10.940;2023-02-28T01:02:02;0.60;99.90
2855;DHT22;1435;49.472;10.940;2023-02-28T01:07:05;0.60;99.90
2855;DHT22;1435;49.472;10.940;2023-02-28T01:12:08;0.60;99.90
2855;DHT22;1435;49.472;10.940;2023-02-28T01:17:10;0.70;99.90
2855;DHT22;1435;49.472;10.940;2023-02-28T01:22:13;0.70;99.90
2855;DHT22;1435;49.472;10.940;2023-02-28T01:27:14;0.80;99.90
2855;DHT22;1435;49.472;10.940;2023-02-28T01:32:16;0.80;99.90
2855;DHT22;1435;49.472;10.940;2023-02-28T01:37:19;0.80;99.90
2855;DHT22;1435;49.472;10.940;2023-02-28T01:42:21;0.90;99.90
2855;DHT22;1435;49.472;10.940;2023-02-28T01:47:26;0.90;99.90
2855;DHT22;1435;49.472;10.940;2023-02-28T01:52:30;0.90;99.90
2855;DHT22;1435;49.472;10.940;2023-02-28T01:57:35;0.90;99.90
2855;DHT22;1435;49.472;10.940;2023-02-28T02:02:41;0.90;99.90
2855;DHT22;1435;49.472;10.940;2023-02-28T02:07:48;0.90;99.90
2855;DHT22;1435;49.472;10.940;2023-02-28T02:13:04;0.90;99.90
2855;DHT22;1435;49.472;10.940;2023-02-28T02:18:14;0.90;99.90
2855;DHT22;1435;49.472;10.940;2023-02-28T02:23:38;0.90;99.90
2855;DHT22;1435;49.472;10.940;2023-02-28T02:29:02;0.90;99.90
2855;DHT22;1435;49.472;10.940;2023-02-28T02:34:29;0.90;99.90
2855;DHT22;1435;49.472;10.940;2023-02-28T02:39:40;0.90;99.90
2855;DHT22;1435;49.472;10.940;2023-02-28T02:44:45;0.80;99.90
2855;DHT22;1435;49.472;10.940;2023-02-28T02:49:52;0.80;99.90
2855;DHT22;1435;49.472;10.940;2023-02-28T02:54:56;0.70;99.90
2855;DHT22;1435;49.472;10.940;2023-02-28T03:00:00;0.70;99.90
2855;DHT22;1435;49.472;10.940;2023-02-28T03:05:12;0.70;99.90
2855;DHT22;1435;49.472;10.940;2023-02-28T03:10:36;0.70;99.90
2855;DHT22;1435;49.472;10.940;2023-02-28T03:15:48;0.70;99.90
2855;DHT22;1435;49.472;10.940;2023-02-28T03:21:02;0.60;99.90
2855;DHT22;1435;49.472;10.940;2023-02-28T03:26:12;0.70;99.90
2855;DHT22;1435;49.472;10.940;2023-02-28T03:31:17;0.60;99.90
2855;DHT22;1435;49.472;10.940;2023-02-28T03:36:24;0.60;99.90
2855;DHT22;1435;49.472;10.940;2023-02-28T03:41:32;0.70;99.90
2855;DHT22;1435;49.472;10.940;2023-02-28T03:46:39;0.70;99.90
2855;DHT22;1435;49.472;10.940;2023-02-28T03:51:46;0.70;99.90
2855;DHT22;1435;49.472;10.940;2023-02-28T03:56:52;0.70;99.90
2855;DHT22;1435;49.472;10.940;2023-02-28T04:01:57;0.70;99.90
2855;DHT22;1435;49.472;10.940;2023-02-28T04:07:06;0.60;99.90
2855;DHT22;1435;49.472;10.940;2023-02-28T04:12:08;0.60;99.90
2855;DHT22;1435;49.472;10.940;2023-02-28T04:17:10;0.70;99.90
2855;DHT22;1435;49.472;10.940;2023-02-28T04:22:13;0.70;99.90
2855;DHT22;1435;49.472;10.940;2023-02-28T04:27:15;0.70;99.90
2855;DHT22;1435;49.472;10.940;2023-02-28T04:32:17;0.70;99.90
2855;DHT22;1435;49.472;10.940;2023-02-28T04:37:20;0.70;99.90
2855;DHT22;1435;49.472;10.940;2023-02-28T04:42:28;0.60;99.90
2855;DHT22;1435;49.472;10.940;2023-02-28T04:47:35;0.60;99.90
2855;DHT22;1435;49.472;10.940;2023-02-28T04:52:38;0.70;99.90
2855;DHT22;1435;49.472;10.940;2023-02-28T04:57:40;0.70;99.90
2855;DHT22;1435;49.472;10.940;2023-02-28T05:02:43;0.70;99.90
2855;DHT22;1435;49.472;10.940;2023-02-28T05:07:46;0.60;99.90
2855;DHT22;1435;49.472;10.940;2023-02-28T05:12:47;0.60;99.90
2855;DHT22;1435;49.472;10.940;2023-02-28T05:17:49;0.60;99.90
2855;DHT22;1435;49.472;10.940;2023-02-28T05:22:52;0.60;99.90
2855;DHT22;1435;49.472;10.940;2023-02-28T05:27:54;0.60;99.90
2855;DHT22;1435;49.472;10.940;2023-02-28T05:32:56;0.60;99.90
2855;DHT22;1435;49.472;10.940;2023-02-28T05:37:59;0.60;99.90
2855;DHT22;1435;49.472;10.940;2023-02-28T05:43:01;0.60;99.90
2855;DHT22;1435;49.472;10.940;2023-02-28T05:48:03;0.60;99.90
2855;DHT22;1435;49.472;10.940;2023-02-28T05:53:06;0.60;99.90
2855;DHT22;1435;49.472;10.940;2023-02-28T05:58:08;0.60;99.90
2855;DHT22;1435;49.472;10.940;2023-02-28T06:03:10;0.60;99.90
2855;DHT22;1435;49.472;10.940;2023-02-28T06:08:13;0.60;99.90
2855;DHT22;1435;49.472;10.940;2023-02-28T06:13:14;0.60;99.90
2855;DHT22;1435;49.472;10.940;2023-02-28T06:18:16;0.60;99.90
2855;DHT22;1435;49.472;10.940;2023-02-28T06:23:19;0.60;99.90
2855;DHT22;1435;49.472;10.940;2023-02-28T06:28:21;0.60;99.90
2855;DHT22;1435;49.472;10.940;2023-02-28T06:33:23;0.60;99.90
2855;DHT22;1435;49.472;10.940;2023-02-28T06:38:27;0.60;99.90
2855;DHT22;1435;49.472;10.940;2023-02-28T06:43:30;0.60;99.90
2855;DHT22;1435;49.472;10.940;2023-02-28T06:48:32;0.60;99.90
2855;DHT22;1435;49.472;10.940;2023-02-28T06:53:36;0.60;99.90
2855;DHT22;1435;49.472;10.940;2023-02-28T06:58:38;0.60;99.90
2855;DHT22;1435;49.472;10.940;2023-02-28T07:03:40;0.70;99.90
2855;DHT22;1435;49.472;10.940;2023-02-28T07:08:44;0.70;99.90
2855;DHT22;1435;49.472;10.940;2023-02-28T07:13:46;0.80;99.90
2855;DHT22;1435;49.472;10.940;2023-02-28T07:18:48;0.80;99.90
2855;DHT22;1435;49.472;10.940;2023-02-28T07:23:51;0.90;99.90
2855;DHT22;1435;49.472;10.940;2023-02-28T07:28:53;0.90;99.90
2855;DHT22;1435;49.472;10.940;2023-02-28T07:33:54;1.00;99.90
2855;DHT22;1435;49.472;10.940;2023-02-28T07:38:58;1.10;99.90
2855;DHT22;1435;49.472;10.940;2023-02-28T07:44:00;1.20;99.90
2855;DHT22;1435;49.472;10.940;2023-02-28T07:49:03;1.20;99.90
2855;DHT22;1435;49.472;10.940;2023-02-28T07:54:06;1.30;99.90
2855;DHT22;1435;49.472;10.940;2023-02-28T07:59:11;1.40;99.90
2855;DHT22;1435;49.472;10.940;2023-02-28T08:04:12;1.40;99.90
2855;DHT22;1435;49.472;10.940;2023-02-28T08:09:15;1.50;99.90
2855;DHT22;1435;49.472;10.940;2023-02-28T08:14:17;1.40;99.90
2855;DHT22;1435;49.472;10.940;2023-02-28T08:19:19;1.50;99.90
2855;DHT22;1435;49.472;10.940;2023-02-28T08:24:22;1.60;99.90
2855;DHT22;1435;49.472;10.940;2023-02-28T08:29:24;1.70;99.90
2855;DHT22;1435;49.472;10.940;2023-02-28T08:34:25;1.80;99.90
2855;DHT22;1435;49.472;10.940;2023-02-28T08:39:28;1.80;99.90
2855;DHT22;1435;49.472;10.940;2023-02-28T08:44:30;1.70;99.90
2855;DHT22;1435;49.472;10.940;2023-02-28T08:49:32;1.80;99.90
2855;DHT22;1435;49.472;10.940;2023-02-28T08:54:35;1.90;99.90
2855;DHT22;1435;49.472;10.940;2023-02-28T08:59:37;1.90;99.90
2855;DHT22;1435;49.472;10.940;2023-02-28T09:04:39;1.90;99.90
2855;DHT22;1435;49.472;10.940;2023-02-28T09:09:42;2.00;99.90
2855;DHT22;1435;49.472;10.940;2023-02-28T09:14:54;2.00;99.90
2855;DHT22;1435;49.472;10.940;2023-02-28T09:19:56;2.10;99.90
2855;DHT22;1435;49.472;10.940;2023-02-28T09:24:59;2.20;99.90
2855;DHT22;1435;49.472;10.940;2023-02-28T09:30:01;2.10;99.90
2855;DHT22;1435;49.472;10.940;2023-02-28T09:35:04;2.20;99.90
2855;DHT22;1435;49.472;10.940;2023-02-28T09:40:09;2.30;99.90
2855;DHT22;1435;49.472;10.940;2023-02-28T09:45:19;2.40;99.90
2855;DHT22;1435;49.472;10.940;2023-02-28T09:50:31;2.50;99.90
2855;DHT22;1435;49.472;10.940;2023-02-28T09:55:39;2.60;99.90
2855;DHT22;1435;49.472;10.940;2023-02-28T10:00:42;2.80;99.90
2855;DHT22;1435;49.472;10.940;2023-02-28T10:05:50;2.80;99.90
2855;DHT22;1435;49.472;10.940;2023-02-28T10:10:57;3.00;99.90
2855;DHT22;1435;49.472;10.940;2023-02-28T10:16:03;2.90;99.90
2855;DHT22;1435;49.472;10.940;2023-02-28T10:21:16;3.00;99.90
2855;DHT22;1435;49.472;10.940;2023-02-28T10:26:21;3.20;99.90
2855;DHT22;1435;49.472;10.940;2023-02-28T10:31:24;3.30;99.90
2855;DHT22;1435;49.472;10.940;2023-02-28T10:36:26;3.40;99.90
2855;DHT22;1435;49.472;10.940;2023-02-28T10:41:31;3.50;99.90
2855;DHT22;1435;49.472;10.940;2023-02-28T10:46:35;3.60;99.30
2855;DHT22;1435;49.472;10.940;2023-02-28T10:51:38;3.70;98.90
2855;DHT22;1435;49.472;10.940;2023-02-28T10:56:42;3.70;98.60
2855;DHT22;1435;49.472;10.940;2023-02-28T11:01:45;3.80;98.00
2855;DHT22;1435;49.472;10.940;2023-02-28T11:06:57;3.90;98.40
2855;DHT22;1435;49.472;10.940;2023-02-28T11:12:01;4.00;99.20
2855;DHT22;1435;49.472;10.940;2023-02-28T11:17:13;4.10;97.80
2855;DHT22;1435;49.472;10.940;2023-02-28T11:22:19;4.30;98.00
2855;DHT22;1435;49.472;10.940;2023-02-28T11:27:47;4.40;97.60
2855;DHT22;1435;49.472;10.940;2023-02-28T11:32:50;4.50;97.60
2855;DHT22;1435;49.472;10.940;2023-02-28T11:37:52;4.60;97.00
2855;DHT22;1435;49.472;10.940;2023-02-28T11:43:01;4.60;96.70
2855;DHT22;1435;49.472;10.940;2023-02-28T11:48:15;4.80;97.00
2855;DHT22;1435;49.472;10.940;2023-02-28T11:53:24;4.90;97.40
2855;DHT22;1435;49.472;10.940;2023-02-28T11:58:41;4.90;97.00
2855;DHT22;1435;49.472;10.940;2023-02-28T12:03:57;5.00;95.30
2855;DHT22;1435;49.472;10.940;2023-02-28T12:09:08;5.10;96.70
2855;DHT22;1435;49.472;10.940;2023-02-28T12:14:45;5.20;96.50
2855;DHT22;1435;49.472;10.940;2023-02-28T12:19:57;5.30;95.40
2855;DHT22;1435;49.472;10.940;2023-02-28T12:25:18;5.30;93.80
2855;DHT22;1435;49.472;10.940;2023-02-28T12:30:25;5.40;94.40
2855;DHT22;1435;49.472;10.940;2023-02-28T12:35:32;5.40;93.50
2855;DHT22;1435;49.472;10.940;2023-02-28T12:40:43;5.50;94.70
2855;DHT22;1435;49.472;10.940;2023-02-28T12:45:51;5.70;93.50
2855;DHT22;1435;49.472;10.940;2023-02-28T12:50:53;5.80;93.80
2855;DHT22;1435;49.472;10.940;2023-02-28T12:56:02;5.90;94.00
2855;DHT22;1435;49.472;10.940;2023-02-28T13:01:42;6.00;93.30
2855;DHT22;1435;49.472;10.940;2023-02-28T13:07:13;6.10;93.10
2855;DHT22;1435;49.472;10.940;2023-02-28T13:12:19;6.30;93.60
2855;DHT22;1435;49.472;10.940;2023-02-28T13:17:24;6.50;93.90
2855;DHT22;1435;49.472;10.940;2023-02-28T13:22:39;6.60;92.20
2855;DHT22;1435;49.472;10.940;2023-02-28T13:27:41;6.70;92.50
2855;DHT22;1435;49.472;10.940;2023-02-28T13:32:45;6.80;91.30
2855;DHT22;1435;49.472;10.940;2023-02-28T13:37:48;7.00;91.50
2855;DHT22;1435;49.472;10.940;2023-02-28T13:42:52;7.20;91.50
2855;DHT22;1435;49.472;10.940;2023-02-28T13:48:00;7.30;90.90
2855;DHT22;1435;49.472;10.940;2023-02-28T13:53:27;7.50;90.50
2855;DHT22;1435;49.472;10.940;2023-02-28T13:58:43;7.70;91.00
2855;DHT22;1435;49.472;10.940;2023-02-28T14:04:21;7.90;90.10
2855;DHT22;1435;49.472;10.940;2023-02-28T14:09:32;8.10;88.30
2855;DHT22;1435;49.472;10.940;2023-02-28T14:14:54;8.20;89.20
2855;DHT22;1435;49.472;10.940;2023-02-28T14:19:59;8.30;88.50
2855;DHT22;1435;49.472;10.940;2023-02-28T14:25:11;8.50;88.70
2855;DHT22;1435;49.472;10.940;2023-02-28T14:30:43;8.60;86.70
2855;DHT22;1435;49.472;10.940;2023-02-28T14:36:04;8.70;86.00
2855;DHT22;1435;49.472;10.940;2023-02-28T14:41:16;9.00;84.10
2855;DHT22;1435;49.472;10.940;2023-02-28T14:46:19;9.00;82.50
2855;DHT22;1435;49.472;10.940;2023-02-28T14:51:23;9.10;83.30
2855;DHT22;1435;49.472;10.940;2023-02-28T14:56:29;9.20;81.70
2855;DHT22;1435;49.472;10.940;2023-02-28T15:01:31;9.20;81.80
2855;DHT22;1435;49.472;10.940;2023-02-28T15:06:35;9.40;80.50
2855;DHT22;1435;49.472;10.940;2023-02-28T15:11:38;9.50;80.50
2855;DHT22;1435;49.472;10.940;2023-02-28T15:16:43;9.50;79.60
2855;DHT22;1435;49.472;10.940;2023-02-28T15:21:49;9.50;78.90
2855;DHT22;1435;49.472;10.940;2023-02-28T15:26:54;9.70;77.70
2855;DHT22;1435;49.472;10.940;2023-02-28T15:32:01;9.80;75.90
2855;DHT22;1435;49.472;10.940;2023-02-28T15:37:27;9.80;76.20
2855;DHT22;1435;49.472;10.940;2023-02-28T15:42:31;9.80;74.60
2855;DHT22;1435;49.472;10.940;2023-02-28T15:47:33;9.80;74.20
2855;DHT22;1435;49.472;10.940;2023-02-28T15:52:38;9.80;73.80
2855;DHT22;1435;49.472;10.940;2023-02-28T15:57:41;9.70;74.00
2855;DHT22;1435;49.472;10.940;2023-02-28T16:02:43;9.60;72.70
2855;DHT22;1435;49.472;10.940;2023-02-28T16:07:46;9.60;73.70
2855;DHT22;1435;49.472;10.940;2023-02-28T16:12:49;9.40;74.00
2855;DHT22;1435;49.472;10.940;2023-02-28T16:17:51;9.10;73.90
2855;DHT22;1435;49.472;10.940;2023-02-28T16:22:54;9.00;73.80
2855;DHT22;1435;49.472;10.940;2023-02-28T16:27:56;8.80;75.10
2855;DHT22;1435;49.472;10.940;2023-02-28T16:33:00;8.50;74.90
2855;DHT22;1435;49.472;10.940;2023-02-28T16:38:03;8.30;75.50
2855;DHT22;1435;49.472;10.940;2023-02-28T16:43:08;8.20;76.20
2855;DHT22;1435;49.472;10.940;2023-02-28T16:48:15;8.10;76.70
2855;DHT22;1435;49.472;10.940;2023-02-28T16:53:18;7.90;77.20
2855;DHT22;1435;49.472;10.940;2023-02-28T16:58:20;7.70;77.90
2855;DHT22;1435;49.472;10.940;2023-02-28T17:03:26;7.60;78.20
2855;DHT22;1435;49.472;10.940;2023-02-28T17:08:30;7.40;78.60
2855;DHT22;1435;49.472;10.940;2023-02-28T17:13:32;7.20;79.40
2855;DHT22;1435;49.472;10.940;2023-02-28T17:18:35;7.00;79.50
2855;DHT22;1435;49.472;10.940;2023-02-28T17:23:38;6.90;80.20
2855;DHT22;1435;49.472;10.940;2023-02-28T17:28:39;6.90;80.30
2855;DHT22;1435;49.472;10.940;2023-02-28T17:33:41;6.80;80.80
2855;DHT22;1435;49.472;10.940;2023-02-28T17:38:44;6.70;81.00
2855;DHT22;1435;49.472;10.940;2023-02-28T17:43:46;6.60;81.80
2855;DHT22;1435;49.472;10.940;2023-02-28T17:48:49;6.50;81.50
2855;DHT22;1435;49.472;10.940;2023-02-28T17:53:53;6.40;81.80
2855;DHT22;1435;49.472;10.940;2023-02-28T17:58:56;6.40;82.00
2855;DHT22;1435;49.472;10.940;2023-02-28T18:03:58;6.30;82.20
2855;DHT22;1435;49.472;10.940;2023-02-28T18:09:01;6.20;82.60
2855;DHT22;1435;49.472;10.940;2023-02-28T18:14:02;6.10;82.90
2855;DHT22;1435;49.472;10.940;2023-02-28T18:19:04;6.00;83.20
2855;DHT22;1435;49.472;10.940;2023-02-28T18:24:08;5.90;83.60
2855;DHT22;1435;49.472;10.940;2023-02-28T18:29:16;5.80;84.20
2855;DHT22;1435;49.472;10.940;2023-02-28T18:34:18;5.80;84.60
2855;DHT22;1435;49.472;10.940;2023-02-28T18:39:22;5.70;84.80
2855;DHT22;1435;49.472;10.940;2023-02-28T18:44:24;5.40;86.50
2855;DHT22;1435;49.472;10.940;2023-02-28T18:49:25;5.20;87.10
2855;DHT22;1435;49.472;10.940;2023-02-28T18:54:28;5.00;87.40
2855;DHT22;1435;49.472;10.940;2023-02-28T18:59:30;4.80;88.00
2855;DHT22;1435;49.472;10.940;2023-02-28T19:04:32;4.60;88.60
2855;DHT22;1435;49.472;10.940;2023-02-28T19:09:35;4.50;89.40
2855;DHT22;1435;49.472;10.940;2023-02-28T19:14:37;4.50;89.40
2855;DHT22;1435;49.472;10.940;2023-02-28T19:19:38;4.50;89.50
2855;DHT22;1435;49.472;10.940;2023-02-28T19:24:41;4.50;89.30
2855;DHT22;1435;49.472;10.940;2023-02-28T19:29:43;4.60;89.50
2855;DHT22;1435;49.472;10.940;2023-02-28T19:34:45;4.60;89.40
2855;DHT22;1435;49.472;10.940;2023-02-28T19:39:48;4.60;89.40
2855;DHT22;1435;49.472;10.940;2023-02-28T19:44:53;4.60;89.40
2855;DHT22;1435;49.472;10.940;2023-02-28T19:49:55;4.60;89.70
2855;DHT22;1435;49.472;10.940;2023-02-28T19:54:58;4.60;89.70
2855;DHT22;1435;49.472;10.940;2023-02-28T20:00:00;4.50;89.90
2855;DHT22;1435;49.472;10.940;2023-02-28T20:05:02;4.50;89.70
2855;DHT22;1435;49.472;10.940;2023-02-28T20:10:06;4.40;90.00
2855;DHT22;1435;49.472;10.940;2023-02-28T20:15:08;4.20;90.10
2855;DHT22;1435;49.472;10.940;2023-02-28T20:20:11;4.10;90.40
2855;DHT22;1435;49.472;10.940;2023-02-28T20:25:14;4.00;90.40
2855;DHT22;1435;49.472;10.940;2023-02-28T20:30:16;3.90;90.90
2855;DHT22;1435;49.472;10.940;2023-02-28T20:35:21;3.80;91.20
2855;DHT22;1435;49.472;10.940;2023-02-28T20:40:24;3.60;91.60
2855;DHT22;1435;49.472;10.940;2023-02-28T20:45:26;3.50;91.90
2855;DHT22;1435;49.472;10.940;2023-02-28T20:50:27;3.40;92.10
2855;DHT22;1435;49.472;10.940;2023-02-28T20:55:30;3.40;92.30
2855;DHT22;1435;49.472;10.940;2023-02-28T21:00:32;3.30;92.50
2855;DHT22;1435;49.472;10.940;2023-02-28T21:05:34;3.30;92.70
2855;DHT22;1435;49.472;10.940;2023-02-28T21:10:37;3.20;93.00
2855;DHT22;1435;49.472;10.940;2023-02-28T21:15:39;3.10;93.10
2855;DHT22;1435;49.472;10.940;2023-02-28T21:20:41;3.10;93.10
2855;DHT22;1435;49.472;10.940;2023-02-28T21:25:44;3.00;93.40
2855;DHT22;1435;49.472;10.940;2023-02-28T21:30:45;2.90;93.50
2855;DHT22;1435;49.472;10.940;2023-02-28T21:35:47;2.80;93.50
2855;DHT22;1435;49.472;10.940;2023-02-28T21:40:50;2.70;93.90
2855;DHT22;1435;49.472;10.940;2023-02-28T21:45:52;2.60;93.80
2855;DHT22;1435;49.472;10.940;2023-02-28T21:50:55;2.50;93.80
2855;DHT22;1435;49.472;10.940;2023-02-28T21:56:00;2.40;94.00
2855;DHT22;1435;49.472;10.940;2023-02-28T22:01:06;2.30;94.30
2855;DHT22;1435;49.472;10.940;2023-02-28T22:06:09;2.30;94.40
2855;DHT22;1435;49.472;10.940;2023-02-28T22:11:14;2.20;94.70
2855;DHT22;1435;49.472;10.940;2023-02-28T22:16:18;2.20;95.10
2855;DHT22;1435;49.472;10.940;2023-02-28T22:21:21;2.20;95.20
2855;DHT22;1435;49.472;10.940;2023-02-28T22:26:25;2.10;95.40
2855;DHT22;1435;49.472;10.940;2023-02-28T22:31:28;2.10;95.70
2855;DHT22;1435;49.472;10.940;2023-02-28T22:36:31;2.00;96.30
2855;DHT22;1435;49.472;10.940;2023-02-28T22:41:34;2.00;96.30
2855;DHT22;1435;49.472;10.940;2023-02-28T22:46:36;2.00;96.40
2855;DHT22;1435;49.472;10.940;2023-02-28T22:51:38;2.00;96.80
2855;DHT22;1435;49.472;10.940;2023-02-28T22:56:41;2.00;97.00
2855;DHT22;1435;49.472;10.940;2023-02-28T23:01:42;1.90;96.80
2855;DHT22;1435;49.472;10.940;2023-02-28T23:06:44;1.90;96.70
2855;DHT22;1435;49.472;10.940;2023-02-28T23:11:48;1.80;96.60
2855;DHT22;1435;49.472;10.940;2023-02-28T23:16:53;1.70;97.20
2855;DHT22;1435;49.472;10.940;2023-02-28T23:21:56;1.70;97.80
2855;DHT22;1435;49.472;10.940;2023-02-28T23:27:00;1.70;98.30
2855;DHT22;1435;49.472;10.940;2023-02-28T23:32:03;1.70;98.30
2855;DHT22;1435;49.472;10.940;2023-02-28T23:37:05;1.60;98.60
2855;DHT22;1435;49.472;10.940;2023-02-28T23:42:08;1.60;98.60
2855;DHT22;1435;49.472;10.940;2023-02-28T23:47:10;1.60;98.90
2855;DHT22;1435;49.472;10.940;2023-02-28T23:52:13;1.60;99.00
2855;DHT22;1435;49.472;10.940;2023-02-28T23:57:16;1.50;99.20
